Airfield :
LOGIN :

Register | Disclaimer

   EN    FR    IT 

 










Legend :    VFR   Marginal VFR   IFR   Intensive IFR   Very Intensive IFR
Visi :
Ceiling :
>= 8 km
>= 3000ft
5 to 8 km
1000 to 3000 ft
1500m to 5 km
500 to 1000 ft
800 to 1500m
200 to 500 ft
< 800m
< 200 ft
Symbols :   Thunderstorms  Fog  Heavy snow  Heavy precipitations  Wind > 20 kt
SIGMETs :     Misc.  Thunderstorms  Icing  Turbulence  Mountain Waves  Volcanic Ashes






- Airport Elevation : 2302 ft


LEAB - Albacete

CURRENT METAR :
  • 181330Z VRB05KT CAVOK 21/M02 Q1015 NOSIG

EXPIRED METARs :
  • 181300Z 32005KT 270V060 CAVOK 21/M00 Q1015 NOSIG
  • 181230Z 31006KT 260V350 CAVOK 20/00 Q1015 NOSIG
  • 181200Z 30005KT 200V360 CAVOK 20/00 Q1016 NOSIG
  • 181130Z VRB04KT CAVOK 19/M00 Q1016 NOSIG
  • 181100Z 36004KT 300V060 CAVOK 18/02 Q1016 NOSIG
  • 181030Z 36003KT 310V080 CAVOK 17/02 Q1017 NOSIG
  • 181000Z VRB03KT CAVOK 16/02 Q1017 NOSIG
  • 180930Z VRB02KT CAVOK 16/04 Q1017 NOSIG
  • 180900Z VRB02KT CAVOK 14/06 Q1017 NOSIG

TAF TAF LEAB
Valid from the 18 at 12:00 until the 19 at 12:00 UTC


181100Z 1812/1912 VRB05KT CAVOK TX22/1814Z TN07/1906Z
BECMG 1900/1902 14010KT
PROB30
TEMPO 1908/1912 14015G25KT
PROB40
TEMPO 1904/1912 BKN012
PROB30
TEMPO 1906/1910 BKN005



MET'MAP, your aeronautical weather chart ! - Copyright ORBIFLY December 2007 - Disclaimer

ORBIFLY MET'MAP TEAM :

Programming & Development : Alexandra Zaïnal
Original concept : Baudouin d'Aumeries
Technical & hardware support : Manuel Goepfert
Assistance : Marc-Olivier Méhu




SOURCES & CREDITS :

   NOAA